sensor_id;sensor_type;location;lat;lon;timestamp;pressure;altitude;pressure_sealevel;temperature;humidity
75538;BME280;64121;48.666;8.114;2023-01-08T00:01:20;99403.66;;;10.84;61.90
75538;BME280;64121;48.666;8.114;2023-01-08T00:03:47;99418.22;;;10.77;62.01
75538;BME280;64121;48.666;8.114;2023-01-08T00:06:14;99404.41;;;10.81;61.67
75538;BME280;64121;48.666;8.114;2023-01-08T00:08:40;99405.28;;;10.85;61.35
75538;BME280;64121;48.666;8.114;2023-01-08T00:11:06;99402.84;;;10.83;62.08
75538;BME280;64121;48.666;8.114;2023-01-08T00:13:31;99410.91;;;10.88;61.68
75538;BME280;64121;48.666;8.114;2023-01-08T00:16:01;99411.16;;;10.99;60.89
75538;BME280;64121;48.666;8.114;2023-01-08T00:18:27;99401.09;;;10.95;61.49
75538;BME280;64121;48.666;8.114;2023-01-08T00:20:53;99399.13;;;10.95;61.39
75538;BME280;64121;48.666;8.114;2023-01-08T00:23:19;99393.03;;;10.89;61.92
75538;BME280;64121;48.666;8.114;2023-01-08T00:25:44;99387.19;;;10.95;61.75
75538;BME280;64121;48.666;8.114;2023-01-08T00:28:10;99390.88;;;10.99;61.04
75538;BME280;64121;48.666;8.114;2023-01-08T00:30:36;99383.44;;;11.06;60.61
75538;BME280;64121;48.666;8.114;2023-01-08T00:33:01;99384.50;;;10.98;60.54
75538;BME280;64121;48.666;8.114;2023-01-08T00:35:26;99378.81;;;10.95;60.70
75538;BME280;64121;48.666;8.114;2023-01-08T00:37:53;99381.72;;;10.98;60.10
75538;BME280;64121;48.666;8.114;2023-01-08T00:40:19;99376.72;;;11.07;60.67
75538;BME280;64121;48.666;8.114;2023-01-08T00:42:44;99372.09;;;10.96;60.49
75538;BME280;64121;48.666;8.114;2023-01-08T00:45:10;99366.31;;;11.04;60.40
75538;BME280;64121;48.666;8.114;2023-01-08T00:47:35;99359.13;;;11.03;60.41
75538;BME280;64121;48.666;8.114;2023-01-08T00:50:00;99351.97;;;11.02;60.54
75538;BME280;64121;48.666;8.114;2023-01-08T00:52:26;99374.06;;;10.95;60.52
75538;BME280;64121;48.666;8.114;2023-01-08T00:54:52;99371.16;;;10.88;61.51
75538;BME280;64121;48.666;8.114;2023-01-08T00:57:18;99366.69;;;10.83;61.13
75538;BME280;64121;48.666;8.114;2023-01-08T00:59:43;99369.03;;;10.81;61.45
75538;BME280;64121;48.666;8.114;2023-01-08T01:02:09;99368.38;;;10.88;61.06
75538;BME280;64121;48.666;8.114;2023-01-08T01:04:34;99367.56;;;10.87;60.69
75538;BME280;64121;48.666;8.114;2023-01-08T01:07:00;99367.91;;;10.86;61.15
75538;BME280;64121;48.666;8.114;2023-01-08T01:09:25;99369.66;;;10.75;61.18
75538;BME280;64121;48.666;8.114;2023-01-08T01:11:52;99366.16;;;10.78;61.64
75538;BME280;64121;48.666;8.114;2023-01-08T01:14:17;99354.56;;;10.76;61.65
75538;BME280;64121;48.666;8.114;2023-01-08T01:16:42;99352.41;;;10.85;60.99
75538;BME280;64121;48.666;8.114;2023-01-08T01:19:08;99353.50;;;11.00;60.96
75538;BME280;64121;48.666;8.114;2023-01-08T01:21:33;99350.19;;;10.94;61.27
75538;BME280;64121;48.666;8.114;2023-01-08T01:24:00;99344.09;;;11.08;59.76
75538;BME280;64121;48.666;8.114;2023-01-08T01:26:26;99345.28;;;11.07;60.11
75538;BME280;64121;48.666;8.114;2023-01-08T01:28:55;99348.13;;;11.10;59.71
75538;BME280;64121;48.666;8.114;2023-01-08T01:31:21;99342.88;;;11.05;60.55
75538;BME280;64121;48.666;8.114;2023-01-08T01:33:47;99342.94;;;11.09;59.93
75538;BME280;64121;48.666;8.114;2023-01-08T01:36:13;99340.22;;;11.12;59.67
75538;BME280;64121;48.666;8.114;2023-01-08T01:38:41;99351.78;;;11.14;59.98
75538;BME280;64121;48.666;8.114;2023-01-08T01:41:22;99344.59;;;11.13;59.94
75538;BME280;64121;48.666;8.114;2023-01-08T01:43:48;99325.53;;;11.15;59.94
75538;BME280;64121;48.666;8.114;2023-01-08T01:46:21;99325.47;;;11.12;60.93
75538;BME280;64121;48.666;8.114;2023-01-08T01:48:50;99321.47;;;11.09;60.65
75538;BME280;64121;48.666;8.114;2023-01-08T01:51:17;99325.84;;;11.10;60.71
75538;BME280;64121;48.666;8.114;2023-01-08T01:53:42;99316.84;;;11.17;61.04
75538;BME280;64121;48.666;8.114;2023-01-08T01:56:08;99312.31;;;11.09;60.39
75538;BME280;64121;48.666;8.114;2023-01-08T01:58:34;99312.31;;;11.09;60.09
75538;BME280;64121;48.666;8.114;2023-01-08T02:01:02;99313.41;;;11.04;60.85
75538;BME280;64121;48.666;8.114;2023-01-08T02:03:33;99304.38;;;11.11;60.80
75538;BME280;64121;48.666;8.114;2023-01-08T02:06:03;99308.59;;;11.01;60.79
75538;BME280;64121;48.666;8.114;2023-01-08T02:08:33;99301.53;;;11.07;60.84
75538;BME280;64121;48.666;8.114;2023-01-08T02:11:06;99309.41;;;11.02;61.02
75538;BME280;64121;48.666;8.114;2023-01-08T02:13:36;99309.03;;;11.03;60.90
75538;BME280;64121;48.666;8.114;2023-01-08T02:16:09;99305.44;;;11.03;60.16
75538;BME280;64121;48.666;8.114;2023-01-08T02:18:42;99297.16;;;11.06;59.99
75538;BME280;64121;48.666;8.114;2023-01-08T02:21:13;99301.09;;;11.05;60.66
75538;BME280;64121;48.666;8.114;2023-01-08T02:23:46;99302.78;;;11.10;59.94
75538;BME280;64121;48.666;8.114;2023-01-08T02:26:18;99288.91;;;11.13;59.60
75538;BME280;64121;48.666;8.114;2023-01-08T02:28:48;99285.69;;;11.11;59.92
75538;BME280;64121;48.666;8.114;2023-01-08T02:31:16;99296.56;;;11.16;60.02
75538;BME280;64121;48.666;8.114;2023-01-08T02:33:43;99298.88;;;11.14;60.29
75538;BME280;64121;48.666;8.114;2023-01-08T02:36:23;99295.28;;;11.14;59.93
75538;BME280;64121;48.666;8.114;2023-01-08T02:39:00;99289.94;;;11.25;58.99
75538;BME280;64121;48.666;8.114;2023-01-08T02:41:37;99280.72;;;11.20;59.60
75538;BME280;64121;48.666;8.114;2023-01-08T02:44:04;99270.22;;;11.14;59.67
75538;BME280;64121;48.666;8.114;2023-01-08T02:46:33;99273.66;;;11.27;59.06
75538;BME280;64121;48.666;8.114;2023-01-08T02:49:02;99258.97;;;11.30;58.56
75538;BME280;64121;48.666;8.114;2023-01-08T02:51:32;99260.97;;;11.29;58.68
75538;BME280;64121;48.666;8.114;2023-01-08T02:54:01;99259.25;;;11.21;58.61
75538;BME280;64121;48.666;8.114;2023-01-08T02:56:33;99253.34;;;11.26;58.59
75538;BME280;64121;48.666;8.114;2023-01-08T02:59:01;99242.59;;;11.25;59.11
75538;BME280;64121;48.666;8.114;2023-01-08T03:01:28;99245.81;;;11.27;59.53
75538;BME280;64121;48.666;8.114;2023-01-08T03:03:57;99250.13;;;11.24;59.31
75538;BME280;64121;48.666;8.114;2023-01-08T03:06:24;99242.97;;;11.23;59.12
75538;BME280;64121;48.666;8.114;2023-01-08T03:08:51;99233.84;;;11.26;59.60
75538;BME280;64121;48.666;8.114;2023-01-08T03:11:19;99237.06;;;11.28;59.57
75538;BME280;64121;48.666;8.114;2023-01-08T03:13:49;99233.09;;;11.29;60.12
75538;BME280;64121;48.666;8.114;2023-01-08T03:16:22;99243.06;;;11.30;59.41
75538;BME280;64121;48.666;8.114;2023-01-08T03:18:54;99240.72;;;11.32;59.29
75538;BME280;64121;48.666;8.114;2023-01-08T03:21:24;99240.72;;;11.32;58.65
75538;BME280;64121;48.666;8.114;2023-01-08T03:23:50;99238.72;;;11.33;58.32
75538;BME280;64121;48.666;8.114;2023-01-08T03:26:19;99242.31;;;11.33;58.92
75538;BME280;64121;48.666;8.114;2023-01-08T03:28:50;99243.06;;;11.30;58.74
75538;BME280;64121;48.666;8.114;2023-01-08T03:31:17;99242.41;;;11.37;57.80
75538;BME280;64121;48.666;8.114;2023-01-08T03:33:44;99244.81;;;11.38;58.09
75538;BME280;64121;48.666;8.114;2023-01-08T03:36:12;99247.97;;;11.37;58.27
75538;BME280;64121;48.666;8.114;2023-01-08T03:38:45;99253.56;;;11.37;58.61
75538;BME280;64121;48.666;8.114;2023-01-08T03:41:12;99246.84;;;11.41;57.56
75538;BME280;64121;48.666;8.114;2023-01-08T03:43:39;99258.06;;;11.45;57.30
75538;BME280;64121;48.666;8.114;2023-01-08T03:46:09;99258.81;;;11.42;58.22
75538;BME280;64121;48.666;8.114;2023-01-08T03:48:36;99253.28;;;11.45;58.00
75538;BME280;64121;48.666;8.114;2023-01-08T03:51:02;99253.94;;;11.35;59.34
75538;BME280;64121;48.666;8.114;2023-01-08T03:53:27;99257.75;;;11.27;60.50
75538;BME280;64121;48.666;8.114;2023-01-08T03:55:53;99261.28;;;11.24;60.48
75538;BME280;64121;48.666;8.114;2023-01-08T03:58:18;99270.31;;;11.17;61.84
75538;BME280;64121;48.666;8.114;2023-01-08T04:00:44;99270.31;;;11.17;61.74
75538;BME280;64121;48.666;8.114;2023-01-08T04:03:10;99271.22;;;11.02;63.97
75538;BME280;64121;48.666;8.114;2023-01-08T04:05:36;99278.63;;;10.95;65.07
75538;BME280;64121;48.666;8.114;2023-01-08T04:08:01;99265.97;;;10.78;65.44
75538;BME280;64121;48.666;8.114;2023-01-08T04:10:26;99265.97;;;10.78;66.41
75538;BME280;64121;48.666;8.114;2023-01-08T04:12:52;99268.50;;;10.64;67.70
75538;BME280;64121;48.666;8.114;2023-01-08T04:15:18;99268.69;;;10.55;68.34
75538;BME280;64121;48.666;8.114;2023-01-08T04:17:44;99268.25;;;10.53;68.64
75538;BME280;64121;48.666;8.114;2023-01-08T04:20:11;99262.19;;;10.47;70.02
75538;BME280;64121;48.666;8.114;2023-01-08T04:22:36;99274.78;;;10.41;71.16
75538;BME280;64121;48.666;8.114;2023-01-08T04:25:02;99277.25;;;10.27;72.03
75538;BME280;64121;48.666;8.114;2023-01-08T04:27:27;99273.66;;;10.26;72.05
75538;BME280;64121;48.666;8.114;2023-01-08T04:29:52;99273.59;;;10.23;72.82
75538;BME280;64121;48.666;8.114;2023-01-08T04:32:18;99275.16;;;10.05;74.39
75538;BME280;64121;48.666;8.114;2023-01-08T04:34:44;99285.19;;;9.93;77.01
75538;BME280;64121;48.666;8.114;2023-01-08T04:37:10;99283.06;;;9.87;76.81
75538;BME280;64121;48.666;8.114;2023-01-08T04:39:36;99275.06;;;9.85;77.19
75538;BME280;64121;48.666;8.114;2023-01-08T04:42:01;99268.19;;;9.79;77.86
75538;BME280;64121;48.666;8.114;2023-01-08T04:44:27;99268.03;;;9.72;78.64
75538;BME280;64121;48.666;8.114;2023-01-08T04:46:52;99268.84;;;9.73;79.74
75538;BME280;64121;48.666;8.114;2023-01-08T04:49:17;99269.47;;;9.66;79.76
75538;BME280;64121;48.666;8.114;2023-01-08T04:51:42;99265.28;;;9.56;80.62
75538;BME280;64121;48.666;8.114;2023-01-08T04:54:09;99277.53;;;9.55;81.34
75538;BME280;64121;48.666;8.114;2023-01-08T04:56:35;99267.97;;;9.53;81.85
75538;BME280;64121;48.666;8.114;2023-01-08T04:59:00;99270.66;;;9.49;82.39
75538;BME280;64121;48.666;8.114;2023-01-08T05:01:26;99265.00;;;9.46;82.97
75538;BME280;64121;48.666;8.114;2023-01-08T05:03:52;99260.25;;;9.46;82.06
75538;BME280;64121;48.666;8.114;2023-01-08T05:06:18;99268.84;;;9.41;83.82
75538;BME280;64121;48.666;8.114;2023-01-08T05:08:43;99266.81;;;9.38;83.27
75538;BME280;64121;48.666;8.114;2023-01-08T05:11:10;99264.81;;;9.38;83.46
75538;BME280;64121;48.666;8.114;2023-01-08T05:13:35;99254.16;;;9.40;84.16
75538;BME280;64121;48.666;8.114;2023-01-08T05:16:00;99260.00;;;9.35;83.80
75538;BME280;64121;48.666;8.114;2023-01-08T05:18:26;99261.41;;;9.29;84.13
75538;BME280;64121;48.666;8.114;2023-01-08T05:20:51;99255.84;;;9.29;84.52
75538;BME280;64121;48.666;8.114;2023-01-08T05:23:17;99231.78;;;9.33;83.70
75538;BME280;64121;48.666;8.114;2023-01-08T05:25:42;99232.97;;;9.32;83.89
75538;BME280;64121;48.666;8.114;2023-01-08T05:28:09;99238.06;;;9.30;84.31
75538;BME280;64121;48.666;8.114;2023-01-08T05:30:35;99232.50;;;9.30;83.87
75538;BME280;64121;48.666;8.114;2023-01-08T05:33:00;99237.69;;;9.32;83.99
75538;BME280;64121;48.666;8.114;2023-01-08T05:35:25;99237.88;;;9.39;83.40
75538;BME280;64121;48.666;8.114;2023-01-08T05:37:51;99232.22;;;9.35;83.94
75538;BME280;64121;48.666;8.114;2023-01-08T05:40:16;99243.06;;;9.40;81.84
75538;BME280;64121;48.666;8.114;2023-01-08T05:42:41;99226.03;;;9.42;82.60
75538;BME280;64121;48.666;8.114;2023-01-08T05:45:08;99233.13;;;9.39;83.43
75538;BME280;64121;48.666;8.114;2023-01-08T05:47:34;99232.59;;;9.34;82.86
75538;BME280;64121;48.666;8.114;2023-01-08T05:50:00;99225.88;;;9.35;82.79
75538;BME280;64121;48.666;8.114;2023-01-08T05:52:25;99228.56;;;9.31;83.50
75538;BME280;64121;48.666;8.114;2023-01-08T05:54:51;99220.03;;;9.40;82.27
75538;BME280;64121;48.666;8.114;2023-01-08T05:57:16;99215.66;;;9.39;83.68
75538;BME280;64121;48.666;8.114;2023-01-08T05:59:41;99223.53;;;9.37;83.55
75538;BME280;64121;48.666;8.114;2023-01-08T06:02:08;99227.03;;;9.34;83.47
75538;BME280;64121;48.666;8.114;2023-01-08T06:04:34;99218.78;;;9.37;82.74
75538;BME280;64121;48.666;8.114;2023-01-08T06:06:59;99223.47;;;9.33;83.47
75538;BME280;64121;48.666;8.114;2023-01-08T06:09:25;99215.28;;;9.40;83.71
75538;BME280;64121;48.666;8.114;2023-01-08T06:11:50;99220.41;;;9.38;83.90
75538;BME280;64121;48.666;8.114;2023-01-08T06:14:15;99219.25;;;9.39;83.19
75538;BME280;64121;48.666;8.114;2023-01-08T06:16:41;99212.53;;;9.40;83.44
75538;BME280;64121;48.666;8.114;2023-01-08T06:19:09;99216.47;;;9.39;83.63
75538;BME280;64121;48.666;8.114;2023-01-08T06:21:35;99220.84;;;9.40;82.94
75538;BME280;64121;48.666;8.114;2023-01-08T06:24:00;99218.97;;;9.45;82.87
75538;BME280;64121;48.666;8.114;2023-01-08T06:26:25;99225.75;;;9.47;82.61
75538;BME280;64121;48.666;8.114;2023-01-08T06:28:51;99224.59;;;9.48;83.26
75538;BME280;64121;48.666;8.114;2023-01-08T06:31:16;99217.78;;;9.46;82.48
75538;BME280;64121;48.666;8.114;2023-01-08T06:33:41;99216.97;;;9.45;82.83
75538;BME280;64121;48.666;8.114;2023-01-08T06:36:08;99213.41;;;9.45;83.44
75538;BME280;64121;48.666;8.114;2023-01-08T06:38:35;99212.22;;;9.46;84.43
75538;BME280;64121;48.666;8.114;2023-01-08T06:41:02;99205.00;;;9.41;83.15
75538;BME280;64121;48.666;8.114;2023-01-08T06:43:28;99209.75;;;9.40;84.16
75538;BME280;64121;48.666;8.114;2023-01-08T06:45:53;99211.72;;;9.40;83.70
75538;BME280;64121;48.666;8.114;2023-01-08T06:48:19;99205.34;;;9.39;84.41
75538;BME280;64121;48.666;8.114;2023-01-08T06:50:44;99202.94;;;9.38;83.82
75538;BME280;64121;48.666;8.114;2023-01-08T06:53:11;99211.78;;;9.44;83.53
75538;BME280;64121;48.666;8.114;2023-01-08T06:55:36;99206.31;;;9.47;83.66
75538;BME280;64121;48.666;8.114;2023-01-08T06:58:02;99209.00;;;9.44;83.31
75538;BME280;64121;48.666;8.114;2023-01-08T07:00:27;99203.03;;;9.41;83.08
75538;BME280;64121;48.666;8.114;2023-01-08T07:02:52;99206.97;;;9.40;83.55
75538;BME280;64121;48.666;8.114;2023-01-08T07:05:18;99200.53;;;9.36;84.46
75538;BME280;64121;48.666;8.114;2023-01-08T07:07:44;99207.50;;;9.46;82.68
75538;BME280;64121;48.666;8.114;2023-01-08T07:10:11;99202.03;;;9.50;82.65
75538;BME280;64121;48.666;8.114;2023-01-08T07:12:36;99197.53;;;9.45;83.24
75538;BME280;64121;48.666;8.114;2023-01-08T07:15:02;99214.94;;;9.42;83.54
75538;BME280;64121;48.666;8.114;2023-01-08T07:17:27;99207.59;;;9.50;83.02
75538;BME280;64121;48.666;8.114;2023-01-08T07:19:53;99208.75;;;9.49;82.82
75538;BME280;64121;48.666;8.114;2023-01-08T07:22:18;99217.09;;;9.49;82.44
75538;BME280;64121;48.666;8.114;2023-01-08T07:24:43;99215.81;;;9.46;83.36
75538;BME280;64121;48.666;8.114;2023-01-08T07:27:10;99221.56;;;9.53;82.70
75538;BME280;64121;48.666;8.114;2023-01-08T07:29:36;99210.38;;;9.50;83.13
75538;BME280;64121;48.666;8.114;2023-01-08T07:32:01;99220.56;;;9.46;82.90
75538;BME280;64121;48.666;8.114;2023-01-08T07:34:26;99216.91;;;9.41;82.89
75538;BME280;64121;48.666;8.114;2023-01-08T07:36:52;99222.47;;;9.41;83.72
75538;BME280;64121;48.666;8.114;2023-01-08T07:39:17;99220.56;;;9.46;82.97
75538;BME280;64121;48.666;8.114;2023-01-08T07:41:42;99216.81;;;9.54;82.80
75538;BME280;64121;48.666;8.114;2023-01-08T07:44:10;99225.75;;;9.47;83.41
75538;BME280;64121;48.666;8.114;2023-01-08T07:46:35;99222.91;;;9.44;83.23
75538;BME280;64121;48.666;8.114;2023-01-08T07:49:00;99213.41;;;9.45;83.27
75538;BME280;64121;48.666;8.114;2023-01-08T07:51:26;99223.25;;;9.42;83.53
75538;BME280;64121;48.666;8.114;2023-01-08T07:53:51;99219.25;;;9.39;83.62
75538;BME280;64121;48.666;8.114;2023-01-08T07:56:16;99219.59;;;9.38;83.76
75538;BME280;64121;48.666;8.114;2023-01-08T07:58:42;99212.06;;;9.38;83.97
75538;BME280;64121;48.666;8.114;2023-01-08T08:01:10;99219.53;;;9.34;84.05
75538;BME280;64121;48.666;8.114;2023-01-08T08:03:36;99206.81;;;9.33;84.05
75538;BME280;64121;48.666;8.114;2023-01-08T08:06:02;99214.41;;;9.36;83.54
75538;BME280;64121;48.666;8.114;2023-01-08T08:08:27;99207.69;;;9.37;83.99
75538;BME280;64121;48.666;8.114;2023-01-08T08:10:52;99221.66;;;9.41;84.72
75538;BME280;64121;48.666;8.114;2023-01-08T08:13:18;99210.63;;;9.45;83.18
75538;BME280;64121;48.666;8.114;2023-01-08T08:15:43;99212.59;;;9.44;82.89
75538;BME280;64121;48.666;8.114;2023-01-08T08:18:10;99218.16;;;9.44;83.28
75538;BME280;64121;48.666;8.114;2023-01-08T08:20:35;99213.75;;;9.43;83.90
75538;BME280;64121;48.666;8.114;2023-01-08T08:23:02;99219.31;;;9.43;83.13
75538;BME280;64121;48.666;8.114;2023-01-08T08:25:27;99219.69;;;9.41;83.65
75538;BME280;64121;48.666;8.114;2023-01-08T08:27:55;99221.38;;;9.46;83.28
75538;BME280;64121;48.666;8.114;2023-01-08T08:30:21;99220.94;;;9.44;82.51
75538;BME280;64121;48.666;8.114;2023-01-08T08:32:46;99216.63;;;9.47;83.82
75538;BME280;64121;48.666;8.114;2023-01-08T08:35:12;99220.69;;;9.49;83.76
75538;BME280;64121;48.666;8.114;2023-01-08T08:37:38;99221.66;;;9.41;83.78
75538;BME280;64121;48.666;8.114;2023-01-08T08:40:04;99221.00;;;9.48;83.12
75538;BME280;64121;48.666;8.114;2023-01-08T08:42:29;99222.97;;;9.47;82.44
75538;BME280;64121;48.666;8.114;2023-01-08T08:44:55;99230.25;;;9.52;82.59
75538;BME280;64121;48.666;8.114;2023-01-08T08:47:20;99221.13;;;9.51;82.74
75538;BME280;64121;48.666;8.114;2023-01-08T08:49:45;99221.47;;;9.50;83.21
75538;BME280;64121;48.666;8.114;2023-01-08T08:52:12;99230.97;;;9.49;83.48
75538;BME280;64121;48.666;8.114;2023-01-08T08:54:37;99237.78;;;9.51;82.81
75538;BME280;64121;48.666;8.114;2023-01-08T08:57:03;99230.97;;;9.49;82.23
75538;BME280;64121;48.666;8.114;2023-01-08T08:59:28;99232.03;;;9.44;84.28
75538;BME280;64121;48.666;8.114;2023-01-08T09:01:53;99245.19;;;9.47;83.58
75538;BME280;64121;48.666;8.114;2023-01-08T09:04:19;99234.00;;;9.44;82.91
75538;BME280;64121;48.666;8.114;2023-01-08T09:06:44;99249.94;;;9.47;84.22
75538;BME280;64121;48.666;8.114;2023-01-08T09:09:11;99247.81;;;9.40;84.38
75538;BME280;64121;48.666;8.114;2023-01-08T09:11:36;99258.09;;;9.39;84.63
75538;BME280;64121;48.666;8.114;2023-01-08T09:14:01;99257.59;;;9.34;85.50
75538;BME280;64121;48.666;8.114;2023-01-08T09:16:27;99254.00;;;9.33;86.74
75538;BME280;64121;48.666;8.114;2023-01-08T09:18:52;99260.16;;;9.27;87.14
75538;BME280;64121;48.666;8.114;2023-01-08T09:21:17;99257.81;;;9.29;86.94
75538;BME280;64121;48.666;8.114;2023-01-08T09:23:43;99261.31;;;9.26;87.15
75538;BME280;64121;48.666;8.114;2023-01-08T09:26:09;99269.28;;;9.27;87.78
75538;BME280;64121;48.666;8.114;2023-01-08T09:28:35;99272.44;;;9.26;87.22
75538;BME280;64121;48.666;8.114;2023-01-08T09:31:00;99271.25;;;9.27;87.20
75538;BME280;64121;48.666;8.114;2023-01-08T09:33:26;99268.84;;;9.25;86.67
75538;BME280;64121;48.666;8.114;2023-01-08T09:35:51;99269.66;;;9.26;87.26
75538;BME280;64121;48.666;8.114;2023-01-08T09:38:16;99269.50;;;9.34;86.74
75538;BME280;64121;48.666;8.114;2023-01-08T09:40:47;99265.81;;;9.30;86.18
75538;BME280;64121;48.666;8.114;2023-01-08T09:43:19;99269.41;;;9.31;86.35
75538;BME280;64121;48.666;8.114;2023-01-08T09:45:49;99273.22;;;9.26;85.75
75538;BME280;64121;48.666;8.114;2023-01-08T09:48:16;99270.00;;;9.24;86.22
75538;BME280;64121;48.666;8.114;2023-01-08T09:50:42;99262.69;;;9.32;85.87
75538;BME280;64121;48.666;8.114;2023-01-08T09:53:12;99257.38;;;9.27;85.69
75538;BME280;64121;48.666;8.114;2023-01-08T09:55:38;99254.00;;;9.33;85.52
75538;BME280;64121;48.666;8.114;2023-01-08T09:58:05;99252.38;;;9.32;85.69
75538;BME280;64121;48.666;8.114;2023-01-08T10:00:36;99256.06;;;9.36;85.49
75538;BME280;64121;48.666;8.114;2023-01-08T10:03:02;99256.50;;;9.38;85.78
75538;BME280;64121;48.666;8.114;2023-01-08T10:05:28;99260.44;;;9.37;85.02
75538;BME280;64121;48.666;8.114;2023-01-08T10:07:54;99262.50;;;9.40;85.35
75538;BME280;64121;48.666;8.114;2023-01-08T10:10:21;99248.34;;;9.46;84.96
75538;BME280;64121;48.666;8.114;2023-01-08T10:12:48;99244.75;;;9.45;85.14
75538;BME280;64121;48.666;8.114;2023-01-08T10:15:16;99248.53;;;9.53;84.82
75538;BME280;64121;48.666;8.114;2023-01-08T10:17:45;99241.00;;;9.53;84.34
75538;BME280;64121;48.666;8.114;2023-01-08T10:20:12;99247.44;;;9.57;84.25
75538;BME280;64121;48.666;8.114;2023-01-08T10:22:38;99242.25;;;9.56;84.72
75538;BME280;64121;48.666;8.114;2023-01-08T10:25:06;99238.00;;;9.62;84.79
75538;BME280;64121;48.666;8.114;2023-01-08T10:27:38;99239.25;;;9.64;84.73
75538;BME280;64121;48.666;8.114;2023-01-08T10:30:14;99233.09;;;9.71;84.29
75538;BME280;64121;48.666;8.114;2023-01-08T10:32:47;99231.19;;;9.75;83.63
75538;BME280;64121;48.666;8.114;2023-01-08T10:35:15;99240.78;;;9.78;83.64
75538;BME280;64121;48.666;8.114;2023-01-08T10:37:42;99233.31;;;9.82;83.14
75538;BME280;64121;48.666;8.114;2023-01-08T10:40:31;99226.41;;;9.91;82.46
75538;BME280;64121;48.666;8.114;2023-01-08T10:43:05;99213.47;;;9.99;81.62
75538;BME280;64121;48.666;8.114;2023-01-08T10:45:32;99206.16;;;10.10;81.03
75538;BME280;64121;48.666;8.114;2023-01-08T10:48:03;99191.81;;;10.24;81.20
75538;BME280;64121;48.666;8.114;2023-01-08T10:50:32;99193.03;;;10.26;80.82
75538;BME280;64121;48.666;8.114;2023-01-08T10:52:59;99179.88;;;10.23;80.58
75538;BME280;64121;48.666;8.114;2023-01-08T10:55:27;99174.38;;;10.27;80.25
75538;BME280;64121;48.666;8.114;2023-01-08T10:57:56;99164.00;;;10.24;79.86
75538;BME280;64121;48.666;8.114;2023-01-08T11:00:24;99158.88;;;10.26;80.31
75538;BME280;64121;48.666;8.114;2023-01-08T11:02:50;99155.91;;;10.19;79.66
75538;BME280;64121;48.666;8.114;2023-01-08T11:05:17;99147.66;;;10.22;79.61
75538;BME280;64121;48.666;8.114;2023-01-08T11:07:47;99134.59;;;10.23;77.65
75538;BME280;64121;48.666;8.114;2023-01-08T11:10:21;99128.09;;;10.19;78.56
75538;BME280;64121;48.666;8.114;2023-01-08T11:12:53;99134.59;;;10.23;78.15
75538;BME280;64121;48.666;8.114;2023-01-08T11:15:40;99134.41;;;10.35;78.51
75538;BME280;64121;48.666;8.114;2023-01-08T11:18:11;99122.19;;;10.40;77.82
75538;BME280;64121;48.666;8.114;2023-01-08T11:20:40;99117.78;;;10.39;78.27
75538;BME280;64121;48.666;8.114;2023-01-08T11:23:14;99113.50;;;10.41;77.70
75538;BME280;64121;48.666;8.114;2023-01-08T11:25:42;99116.72;;;10.43;77.73
75538;BME280;64121;48.666;8.114;2023-01-08T11:28:10;99095.31;;;10.47;77.67
75538;BME280;64121;48.666;8.114;2023-01-08T11:30:39;99076.66;;;10.48;77.56
75538;BME280;64121;48.666;8.114;2023-01-08T11:33:09;99084.19;;;10.47;77.47
75538;BME280;64121;48.666;8.114;2023-01-08T11:35:41;99086.28;;;10.54;77.29
75538;BME280;64121;48.666;8.114;2023-01-08T11:38:11;99084.75;;;10.56;76.52
75538;BME280;64121;48.666;8.114;2023-01-08T11:40:40;99072.44;;;10.57;76.88
75538;BME280;64121;48.666;8.114;2023-01-08T11:43:24;99067.19;;;10.52;76.96
75538;BME280;64121;48.666;8.114;2023-01-08T11:46:02;99071.63;;;10.57;77.05
75538;BME280;64121;48.666;8.114;2023-01-08T11:48:42;99067.63;;;10.54;76.47
75538;BME280;64121;48.666;8.114;2023-01-08T11:51:33;99056.06;;;10.52;77.77
75538;BME280;64121;48.666;8.114;2023-01-08T11:54:05;99055.25;;;10.52;77.97
75538;BME280;64121;48.666;8.114;2023-01-08T11:56:44;99056.44;;;10.51;77.28
75538;BME280;64121;48.666;8.114;2023-01-08T11:59:17;99058.41;;;10.50;77.75
75538;BME280;64121;48.666;8.114;2023-01-08T12:01:54;99056.50;;;10.54;77.68
75538;BME280;64121;48.666;8.114;2023-01-08T12:04:41;99049.81;;;10.59;77.62
75538;BME280;64121;48.666;8.114;2023-01-08T12:07:18;99053.72;;;10.54;77.08
75538;BME280;64121;48.666;8.114;2023-01-08T12:09:48;99050.97;;;10.58;76.31
75538;BME280;64121;48.666;8.114;2023-01-08T12:12:30;99044.94;;;10.52;77.33
75538;BME280;64121;48.666;8.114;2023-01-08T12:15:06;99057.34;;;10.58;76.19
75538;BME280;64121;48.666;8.114;2023-01-08T12:17:56;99045.38;;;10.54;75.96
75538;BME280;64121;48.666;8.114;2023-01-08T12:20:31;99046.75;;;10.64;75.46
75538;BME280;64121;48.666;8.114;2023-01-08T12:23:10;99055.38;;;10.59;75.70
75538;BME280;64121;48.666;8.114;2023-01-08T12:25:51;99052.59;;;10.59;76.02
75538;BME280;64121;48.666;8.114;2023-01-08T12:28:33;99040.31;;;10.60;76.38
75538;BME280;64121;48.666;8.114;2023-01-08T12:31:14;99050.97;;;10.58;76.38
75538;BME280;64121;48.666;8.114;2023-01-08T12:33:46;99044.63;;;10.57;76.78
75538;BME280;64121;48.666;8.114;2023-01-08T12:36:16;99043.91;;;10.60;76.61
75538;BME280;64121;48.666;8.114;2023-01-08T12:38:49;99034.00;;;10.63;75.84
75538;BME280;64121;48.666;8.114;2023-01-08T12:41:18;99027.31;;;10.68;76.67
75538;BME280;64121;48.666;8.114;2023-01-08T12:43:50;99015.75;;;10.66;75.56
75538;BME280;64121;48.666;8.114;2023-01-08T12:46:17;99013.03;;;10.69;76.38
75538;BME280;64121;48.666;8.114;2023-01-08T12:48:45;99023.63;;;10.60;75.75
75538;BME280;64121;48.666;8.114;2023-01-08T12:51:15;99032.44;;;10.66;76.03
75538;BME280;64121;48.666;8.114;2023-01-08T12:53:48;99021.75;;;10.68;75.93
75538;BME280;64121;48.666;8.114;2023-01-08T12:56:20;99015.38;;;10.67;75.57
75538;BME280;64121;48.666;8.114;2023-01-08T12:59:06;99022.22;;;10.73;76.08
75538;BME280;64121;48.666;8.114;2023-01-08T13:01:42;99023.34;;;10.69;76.67
75538;BME280;64121;48.666;8.114;2023-01-08T13:04:09;99006.28;;;10.70;76.34
75538;BME280;64121;48.666;8.114;2023-01-08T13:06:35;99003.09;;;10.68;76.13
75538;BME280;64121;48.666;8.114;2023-01-08T13:09:02;99003.50;;;10.70;75.54